sensor_id;sensor_type;location;lat;lon;timestamp;P1;durP1;ratioP1;P2;durP2;ratioP2
1957;SDS011;979;51.076;13.748;2022-08-21T00:02:21;0.63;;;0.63;;
1957;SDS011;979;51.076;13.748;2022-08-21T00:04:53;1.70;;;1.60;;
1957;SDS011;979;51.076;13.748;2022-08-21T00:07:23;0.60;;;0.60;;
1957;SDS011;979;51.076;13.748;2022-08-21T00:09:54;0.60;;;0.60;;
1957;SDS011;979;51.076;13.748;2022-08-21T00:12:25;0.70;;;0.70;;
1957;SDS011;979;51.076;13.748;2022-08-21T00:14:56;0.60;;;0.60;;
1957;SDS011;979;51.076;13.748;2022-08-21T00:17:25;0.60;;;0.60;;
1957;SDS011;979;51.076;13.748;2022-08-21T00:19:55;0.60;;;0.60;;
1957;SDS011;979;51.076;13.748;2022-08-21T00:22:23;1.83;;;1.73;;
1957;SDS011;979;51.076;13.748;2022-08-21T00:24:51;2.10;;;2.00;;
1957;SDS011;979;51.076;13.748;2022-08-21T00:27:19;0.60;;;0.60;;
1957;SDS011;979;51.076;13.748;2022-08-21T00:29:48;0.60;;;0.60;;
1957;SDS011;979;51.076;13.748;2022-08-21T00:32:19;0.57;;;0.57;;
1957;SDS011;979;51.076;13.748;2022-08-21T00:34:48;0.60;;;0.60;;
1957;SDS011;979;51.076;13.748;2022-08-21T00:37:18;0.50;;;0.50;;
1957;SDS011;979;51.076;13.748;2022-08-21T00:39:47;0.60;;;0.60;;
1957;SDS011;979;51.076;13.748;2022-08-21T00:42:15;0.60;;;0.60;;
1957;SDS011;979;51.076;13.748;2022-08-21T00:44:47;0.57;;;0.57;;
1957;SDS011;979;51.076;13.748;2022-08-21T00:47:16;0.60;;;0.60;;
1957;SDS011;979;51.076;13.748;2022-08-21T00:49:45;0.60;;;0.60;;
1957;SDS011;979;51.076;13.748;2022-08-21T00:52:16;0.57;;;0.57;;
1957;SDS011;979;51.076;13.748;2022-08-21T00:54:50;0.60;;;0.60;;
1957;SDS011;979;51.076;13.748;2022-08-21T00:57:24;0.60;;;0.60;;
1957;SDS011;979;51.076;13.748;2022-08-21T00:59:59;0.60;;;0.60;;
1957;SDS011;979;51.076;13.748;2022-08-21T01:02:33;0.50;;;0.50;;
1957;SDS011;979;51.076;13.748;2022-08-21T01:05:04;0.80;;;0.80;;
1957;SDS011;979;51.076;13.748;2022-08-21T01:07:37;1.00;;;1.00;;
1957;SDS011;979;51.076;13.748;2022-08-21T01:10:06;0.53;;;0.53;;
1957;SDS011;979;51.076;13.748;2022-08-21T01:12:39;0.57;;;0.57;;
1957;SDS011;979;51.076;13.748;2022-08-21T01:15:09;1.40;;;1.40;;
1957;SDS011;979;51.076;13.748;2022-08-21T01:17:41;1.10;;;0.70;;
1957;SDS011;979;51.076;13.748;2022-08-21T01:20:10;2.50;;;2.40;;
1957;SDS011;979;51.076;13.748;2022-08-21T01:22:40;0.70;;;0.70;;
1957;SDS011;979;51.076;13.748;2022-08-21T01:25:09;1.20;;;1.20;;
1957;SDS011;979;51.076;13.748;2022-08-21T01:27:39;1.33;;;1.33;;
1957;SDS011;979;51.076;13.748;2022-08-21T01:30:09;0.70;;;0.70;;
1957;SDS011;979;51.076;13.748;2022-08-21T01:32:40;0.80;;;0.80;;
1957;SDS011;979;51.076;13.748;2022-08-21T01:35:09;0.70;;;0.70;;
1957;SDS011;979;51.076;13.748;2022-08-21T01:37:39;0.70;;;0.70;;
1957;SDS011;979;51.076;13.748;2022-08-21T01:40:09;0.60;;;0.60;;
1957;SDS011;979;51.076;13.748;2022-08-21T01:42:39;0.70;;;0.70;;
1957;SDS011;979;51.076;13.748;2022-08-21T01:45:08;0.70;;;0.70;;
1957;SDS011;979;51.076;13.748;2022-08-21T01:47:37;0.70;;;0.70;;
1957;SDS011;979;51.076;13.748;2022-08-21T01:50:09;0.60;;;0.60;;
1957;SDS011;979;51.076;13.748;2022-08-21T01:52:43;0.70;;;0.70;;
1957;SDS011;979;51.076;13.748;2022-08-21T01:55:12;0.60;;;0.60;;
1957;SDS011;979;51.076;13.748;2022-08-21T01:57:42;0.60;;;0.60;;
1957;SDS011;979;51.076;13.748;2022-08-21T02:00:11;0.60;;;0.60;;
1957;SDS011;979;51.076;13.748;2022-08-21T02:02:41;0.70;;;0.70;;
1957;SDS011;979;51.076;13.748;2022-08-21T02:05:11;0.80;;;0.80;;
1957;SDS011;979;51.076;13.748;2022-08-21T02:07:41;0.67;;;0.67;;
1957;SDS011;979;51.076;13.748;2022-08-21T02:10:14;0.70;;;0.70;;
1957;SDS011;979;51.076;13.748;2022-08-21T02:12:46;0.67;;;0.67;;
1957;SDS011;979;51.076;13.748;2022-08-21T02:15:16;0.60;;;0.60;;
1957;SDS011;979;51.076;13.748;2022-08-21T02:17:50;0.60;;;0.60;;
1957;SDS011;979;51.076;13.748;2022-08-21T02:20:22;0.60;;;0.60;;
1957;SDS011;979;51.076;13.748;2022-08-21T02:22:55;1.07;;;1.07;;
1957;SDS011;979;51.076;13.748;2022-08-21T02:25:27;0.60;;;0.60;;
1957;SDS011;979;51.076;13.748;2022-08-21T02:27:56;0.60;;;0.60;;
1957;SDS011;979;51.076;13.748;2022-08-21T02:30:29;0.60;;;0.60;;
1957;SDS011;979;51.076;13.748;2022-08-21T02:33:02;0.60;;;0.60;;
1957;SDS011;979;51.076;13.748;2022-08-21T02:35:30;0.60;;;0.60;;
1957;SDS011;979;51.076;13.748;2022-08-21T02:38:01;0.60;;;0.60;;
1957;SDS011;979;51.076;13.748;2022-08-21T02:40:38;0.60;;;0.60;;
1957;SDS011;979;51.076;13.748;2022-08-21T02:43:16;0.60;;;0.60;;
1957;SDS011;979;51.076;13.748;2022-08-21T02:45:45;0.60;;;0.60;;
1957;SDS011;979;51.076;13.748;2022-08-21T02:48:16;0.50;;;0.50;;
1957;SDS011;979;51.076;13.748;2022-08-21T02:50:46;0.60;;;0.60;;
1957;SDS011;979;51.076;13.748;2022-08-21T02:53:18;0.60;;;0.60;;
1957;SDS011;979;51.076;13.748;2022-08-21T02:55:49;0.60;;;0.60;;
1957;SDS011;979;51.076;13.748;2022-08-21T02:58:20;0.60;;;0.60;;
1957;SDS011;979;51.076;13.748;2022-08-21T03:00:50;0.53;;;0.53;;
1957;SDS011;979;51.076;13.748;2022-08-21T03:03:19;0.60;;;0.60;;
1957;SDS011;979;51.076;13.748;2022-08-21T03:05:47;0.60;;;0.60;;
1957;SDS011;979;51.076;13.748;2022-08-21T03:08:18;0.60;;;0.60;;
1957;SDS011;979;51.076;13.748;2022-08-21T03:10:52;0.60;;;0.60;;
1957;SDS011;979;51.076;13.748;2022-08-21T03:13:20;0.60;;;0.60;;
1957;SDS011;979;51.076;13.748;2022-08-21T03:15:51;0.60;;;0.60;;
1957;SDS011;979;51.076;13.748;2022-08-21T03:18:20;0.60;;;0.60;;
1957;SDS011;979;51.076;13.748;2022-08-21T03:20:48;0.60;;;0.60;;
1957;SDS011;979;51.076;13.748;2022-08-21T03:23:18;0.60;;;0.60;;
1957;SDS011;979;51.076;13.748;2022-08-21T03:25:46;0.60;;;0.60;;
1957;SDS011;979;51.076;13.748;2022-08-21T03:28:19;0.50;;;0.50;;
1957;SDS011;979;51.076;13.748;2022-08-21T03:30:49;0.60;;;0.60;;
1957;SDS011;979;51.076;13.748;2022-08-21T03:33:20;0.60;;;0.60;;
1957;SDS011;979;51.076;13.748;2022-08-21T03:35:54;0.60;;;0.60;;
1957;SDS011;979;51.076;13.748;2022-08-21T03:38:29;0.70;;;0.70;;
1957;SDS011;979;51.076;13.748;2022-08-21T03:40:59;1.00;;;1.00;;
1957;SDS011;979;51.076;13.748;2022-08-21T03:43:30;0.90;;;0.90;;
1957;SDS011;979;51.076;13.748;2022-08-21T03:46:00;6.73;;;3.10;;
1957;SDS011;979;51.076;13.748;2022-08-21T03:48:29;0.90;;;0.90;;
1957;SDS011;979;51.076;13.748;2022-08-21T03:50:57;0.90;;;0.90;;
1957;SDS011;979;51.076;13.748;2022-08-21T03:53:29;0.90;;;0.90;;
1957;SDS011;979;51.076;13.748;2022-08-21T03:55:58;0.80;;;0.80;;
1957;SDS011;979;51.076;13.748;2022-08-21T03:58:26;0.80;;;0.80;;
1957;SDS011;979;51.076;13.748;2022-08-21T04:00:56;0.90;;;0.90;;
1957;SDS011;979;51.076;13.748;2022-08-21T04:03:26;0.80;;;0.80;;
1957;SDS011;979;51.076;13.748;2022-08-21T04:05:55;1.00;;;1.00;;
1957;SDS011;979;51.076;13.748;2022-08-21T04:08:23;0.80;;;0.80;;
1957;SDS011;979;51.076;13.748;2022-08-21T04:10:53;0.80;;;0.80;;
1957;SDS011;979;51.076;13.748;2022-08-21T04:13:24;1.77;;;1.77;;
1957;SDS011;979;51.076;13.748;2022-08-21T04:15:54;0.80;;;0.80;;
1957;SDS011;979;51.076;13.748;2022-08-21T04:18:24;0.80;;;0.80;;
1957;SDS011;979;51.076;13.748;2022-08-21T04:20:52;0.70;;;0.70;;
1957;SDS011;979;51.076;13.748;2022-08-21T04:23:23;0.70;;;0.70;;
1957;SDS011;979;51.076;13.748;2022-08-21T04:25:53;0.70;;;0.70;;
1957;SDS011;979;51.076;13.748;2022-08-21T04:28:23;0.70;;;0.70;;
1957;SDS011;979;51.076;13.748;2022-08-21T04:30:56;0.70;;;0.70;;
1957;SDS011;979;51.076;13.748;2022-08-21T04:33:27;0.80;;;0.80;;
1957;SDS011;979;51.076;13.748;2022-08-21T04:35:55;0.70;;;0.70;;
1957;SDS011;979;51.076;13.748;2022-08-21T04:38:23;0.70;;;0.70;;
1957;SDS011;979;51.076;13.748;2022-08-21T04:41:03;0.70;;;0.70;;
1957;SDS011;979;51.076;13.748;2022-08-21T04:43:32;0.70;;;0.70;;
1957;SDS011;979;51.076;13.748;2022-08-21T04:46:01;0.60;;;0.60;;
1957;SDS011;979;51.076;13.748;2022-08-21T04:48:32;0.70;;;0.70;;
1957;SDS011;979;51.076;13.748;2022-08-21T04:51:03;0.70;;;0.70;;
1957;SDS011;979;51.076;13.748;2022-08-21T04:53:36;0.70;;;0.70;;
1957;SDS011;979;51.076;13.748;2022-08-21T04:56:08;0.70;;;0.70;;
1957;SDS011;979;51.076;13.748;2022-08-21T04:58:42;0.67;;;0.67;;
1957;SDS011;979;51.076;13.748;2022-08-21T05:01:12;0.70;;;0.70;;
1957;SDS011;979;51.076;13.748;2022-08-21T05:03:44;0.70;;;0.70;;
1957;SDS011;979;51.076;13.748;2022-08-21T05:06:16;0.70;;;0.70;;
1957;SDS011;979;51.076;13.748;2022-08-21T05:08:45;0.70;;;0.70;;
1957;SDS011;979;51.076;13.748;2022-08-21T05:11:16;0.70;;;0.70;;
1957;SDS011;979;51.076;13.748;2022-08-21T05:13:44;0.70;;;0.70;;
1957;SDS011;979;51.076;13.748;2022-08-21T05:16:22;0.70;;;0.70;;
1957;SDS011;979;51.076;13.748;2022-08-21T05:19:03;0.70;;;0.70;;
1957;SDS011;979;51.076;13.748;2022-08-21T05:21:31;0.90;;;0.90;;
1957;SDS011;979;51.076;13.748;2022-08-21T05:24:00;1.47;;;1.37;;
1957;SDS011;979;51.076;13.748;2022-08-21T05:26:29;0.60;;;0.60;;
1957;SDS011;979;51.076;13.748;2022-08-21T05:28:58;0.60;;;0.60;;
1957;SDS011;979;51.076;13.748;2022-08-21T05:31:27;0.50;;;0.50;;
1957;SDS011;979;51.076;13.748;2022-08-21T05:33:55;0.60;;;0.60;;
1957;SDS011;979;51.076;13.748;2022-08-21T05:36:24;0.60;;;0.60;;
1957;SDS011;979;51.076;13.748;2022-08-21T05:38:52;0.60;;;0.60;;
1957;SDS011;979;51.076;13.748;2022-08-21T05:41:20;0.70;;;0.70;;
1957;SDS011;979;51.076;13.748;2022-08-21T05:43:50;0.60;;;0.60;;
1957;SDS011;979;51.076;13.748;2022-08-21T05:46:18;0.60;;;0.60;;
1957;SDS011;979;51.076;13.748;2022-08-21T05:48:47;0.70;;;0.70;;
1957;SDS011;979;51.076;13.748;2022-08-21T05:51:15;0.80;;;0.80;;
1957;SDS011;979;51.076;13.748;2022-08-21T05:53:44;0.60;;;0.60;;
1957;SDS011;979;51.076;13.748;2022-08-21T05:56:13;0.50;;;0.50;;
1957;SDS011;979;51.076;13.748;2022-08-21T05:58:41;0.60;;;0.60;;
1957;SDS011;979;51.076;13.748;2022-08-21T06:01:11;0.90;;;0.90;;
1957;SDS011;979;51.076;13.748;2022-08-21T06:03:41;1.67;;;1.57;;
1957;SDS011;979;51.076;13.748;2022-08-21T06:06:09;0.60;;;0.60;;
1957;SDS011;979;51.076;13.748;2022-08-21T06:08:38;0.67;;;0.67;;
1957;SDS011;979;51.076;13.748;2022-08-21T06:11:06;0.60;;;0.60;;
1957;SDS011;979;51.076;13.748;2022-08-21T06:13:37;0.60;;;0.60;;
1957;SDS011;979;51.076;13.748;2022-08-21T06:16:08;0.60;;;0.60;;
1957;SDS011;979;51.076;13.748;2022-08-21T06:18:43;0.70;;;0.70;;
1957;SDS011;979;51.076;13.748;2022-08-21T06:21:12;0.60;;;0.60;;
1957;SDS011;979;51.076;13.748;2022-08-21T06:23:40;0.93;;;0.93;;
1957;SDS011;979;51.076;13.748;2022-08-21T06:26:09;0.50;;;0.50;;
1957;SDS011;979;51.076;13.748;2022-08-21T06:28:38;0.50;;;0.50;;
1957;SDS011;979;51.076;13.748;2022-08-21T06:31:11;1.67;;;1.67;;
1957;SDS011;979;51.076;13.748;2022-08-21T06:33:45;1.53;;;1.43;;
1957;SDS011;979;51.076;13.748;2022-08-21T06:36:13;1.60;;;1.57;;
1957;SDS011;979;51.076;13.748;2022-08-21T06:38:44;0.60;;;0.60;;
1957;SDS011;979;51.076;13.748;2022-08-21T06:41:19;0.60;;;0.60;;
1957;SDS011;979;51.076;13.748;2022-08-21T06:43:52;1.23;;;0.73;;
1957;SDS011;979;51.076;13.748;2022-08-21T06:46:21;0.60;;;0.60;;
1957;SDS011;979;51.076;13.748;2022-08-21T06:48:53;0.60;;;0.60;;
1957;SDS011;979;51.076;13.748;2022-08-21T06:51:25;0.97;;;0.97;;
1957;SDS011;979;51.076;13.748;2022-08-21T06:53:53;0.80;;;0.80;;
1957;SDS011;979;51.076;13.748;2022-08-21T06:56:26;0.60;;;0.60;;
1957;SDS011;979;51.076;13.748;2022-08-21T06:58:56;1.33;;;1.27;;
1957;SDS011;979;51.076;13.748;2022-08-21T07:01:27;0.60;;;0.60;;
1957;SDS011;979;51.076;13.748;2022-08-21T07:03:56;0.60;;;0.60;;
1957;SDS011;979;51.076;13.748;2022-08-21T07:06:25;0.70;;;0.70;;
1957;SDS011;979;51.076;13.748;2022-08-21T07:08:54;0.50;;;0.50;;
1957;SDS011;979;51.076;13.748;2022-08-21T07:11:24;0.80;;;0.80;;
1957;SDS011;979;51.076;13.748;2022-08-21T07:13:53;0.60;;;0.60;;
1957;SDS011;979;51.076;13.748;2022-08-21T07:16:23;1.23;;;1.20;;
1957;SDS011;979;51.076;13.748;2022-08-21T07:18:54;0.50;;;0.50;;
1957;SDS011;979;51.076;13.748;2022-08-21T07:21:25;1.37;;;1.10;;
1957;SDS011;979;51.076;13.748;2022-08-21T07:23:53;0.60;;;0.60;;
1957;SDS011;979;51.076;13.748;2022-08-21T07:26:22;0.60;;;0.60;;
1957;SDS011;979;51.076;13.748;2022-08-21T07:28:52;0.60;;;0.60;;
1957;SDS011;979;51.076;13.748;2022-08-21T07:31:22;0.50;;;0.50;;
1957;SDS011;979;51.076;13.748;2022-08-21T07:33:52;0.60;;;0.60;;
1957;SDS011;979;51.076;13.748;2022-08-21T07:36:28;0.60;;;0.60;;
1957;SDS011;979;51.076;13.748;2022-08-21T07:39:00;0.50;;;0.50;;
1957;SDS011;979;51.076;13.748;2022-08-21T07:41:29;1.57;;;1.47;;
1957;SDS011;979;51.076;13.748;2022-08-21T07:43:58;2.67;;;2.50;;
1957;SDS011;979;51.076;13.748;2022-08-21T07:46:37;2.70;;;2.50;;
1957;SDS011;979;51.076;13.748;2022-08-21T07:49:06;0.60;;;0.60;;
1957;SDS011;979;51.076;13.748;2022-08-21T07:51:38;0.70;;;0.70;;
1957;SDS011;979;51.076;13.748;2022-08-21T07:54:08;0.60;;;0.60;;
1957;SDS011;979;51.076;13.748;2022-08-21T07:56:42;0.60;;;0.60;;
1957;SDS011;979;51.076;13.748;2022-08-21T07:59:10;0.50;;;0.50;;
1957;SDS011;979;51.076;13.748;2022-08-21T08:01:39;0.50;;;0.50;;
1957;SDS011;979;51.076;13.748;2022-08-21T08:04:07;0.60;;;0.60;;
1957;SDS011;979;51.076;13.748;2022-08-21T08:06:36;1.47;;;1.37;;
1957;SDS011;979;51.076;13.748;2022-08-21T08:09:07;0.50;;;0.50;;
1957;SDS011;979;51.076;13.748;2022-08-21T08:11:36;1.13;;;1.13;;
1957;SDS011;979;51.076;13.748;2022-08-21T08:14:16;0.70;;;0.70;;
1957;SDS011;979;51.076;13.748;2022-08-21T08:16:57;0.60;;;0.60;;
1957;SDS011;979;51.076;13.748;2022-08-21T08:19:41;0.70;;;0.70;;
1957;SDS011;979;51.076;13.748;2022-08-21T08:22:21;0.50;;;0.50;;
1957;SDS011;979;51.076;13.748;2022-08-21T08:25:11;0.60;;;0.60;;
1957;SDS011;979;51.076;13.748;2022-08-21T08:28:02;0.60;;;0.60;;
1957;SDS011;979;51.076;13.748;2022-08-21T08:30:45;0.60;;;0.60;;
1957;SDS011;979;51.076;13.748;2022-08-21T08:33:19;1.00;;;1.00;;
1957;SDS011;979;51.076;13.748;2022-08-21T08:35:48;0.60;;;0.60;;
1957;SDS011;979;51.076;13.748;2022-08-21T08:38:20;0.60;;;0.60;;
1957;SDS011;979;51.076;13.748;2022-08-21T08:40:55;0.60;;;0.60;;
1957;SDS011;979;51.076;13.748;2022-08-21T08:43:29;0.70;;;0.70;;
1957;SDS011;979;51.076;13.748;2022-08-21T08:46:01;0.60;;;0.60;;
1957;SDS011;979;51.076;13.748;2022-08-21T08:48:36;0.60;;;0.60;;
1957;SDS011;979;51.076;13.748;2022-08-21T08:51:21;0.60;;;0.60;;
1957;SDS011;979;51.076;13.748;2022-08-21T08:53:54;0.80;;;0.80;;
1957;SDS011;979;51.076;13.748;2022-08-21T08:56:30;0.80;;;0.80;;
1957;SDS011;979;51.076;13.748;2022-08-21T08:59:02;1.80;;;1.77;;
1957;SDS011;979;51.076;13.748;2022-08-21T09:01:37;0.60;;;0.60;;
1957;SDS011;979;51.076;13.748;2022-08-21T09:04:06;0.60;;;0.60;;
1957;SDS011;979;51.076;13.748;2022-08-21T09:06:37;0.60;;;0.60;;
1957;SDS011;979;51.076;13.748;2022-08-21T09:09:21;0.90;;;0.90;;
1957;SDS011;979;51.076;13.748;2022-08-21T09:11:59;0.60;;;0.60;;
1957;SDS011;979;51.076;13.748;2022-08-21T09:14:36;0.63;;;0.63;;
1957;SDS011;979;51.076;13.748;2022-08-21T09:17:19;0.60;;;0.60;;
1957;SDS011;979;51.076;13.748;2022-08-21T09:20:00;0.60;;;0.60;;
1957;SDS011;979;51.076;13.748;2022-08-21T09:22:39;0.60;;;0.60;;
1957;SDS011;979;51.076;13.748;2022-08-21T09:25:15;0.60;;;0.60;;
1957;SDS011;979;51.076;13.748;2022-08-21T09:27:50;0.63;;;0.63;;
1957;SDS011;979;51.076;13.748;2022-08-21T09:30:19;0.70;;;0.70;;
1957;SDS011;979;51.076;13.748;2022-08-21T09:32:54;0.60;;;0.60;;
1957;SDS011;979;51.076;13.748;2022-08-21T09:35:23;0.70;;;0.70;;
1957;SDS011;979;51.076;13.748;2022-08-21T09:37:58;0.80;;;0.80;;
1957;SDS011;979;51.076;13.748;2022-08-21T09:40:31;0.70;;;0.70;;
1957;SDS011;979;51.076;13.748;2022-08-21T09:43:03;0.80;;;0.80;;
1957;SDS011;979;51.076;13.748;2022-08-21T09:45:34;0.90;;;0.90;;
1957;SDS011;979;51.076;13.748;2022-08-21T09:48:09;1.10;;;1.10;;
1957;SDS011;979;51.076;13.748;2022-08-21T09:50:40;1.70;;;1.57;;
1957;SDS011;979;51.076;13.748;2022-08-21T09:53:16;1.97;;;1.87;;
1957;SDS011;979;51.076;13.748;2022-08-21T09:55:47;1.70;;;1.70;;
1957;SDS011;979;51.076;13.748;2022-08-21T09:58:38;2.33;;;2.33;;
1957;SDS011;979;51.076;13.748;2022-08-21T10:01:12;4.10;;;4.00;;
1957;SDS011;979;51.076;13.748;2022-08-21T10:03:42;5.90;;;5.80;;
1957;SDS011;979;51.076;13.748;2022-08-21T10:06:20;6.40;;;6.30;;
1957;SDS011;979;51.076;13.748;2022-08-21T10:09:02;6.57;;;6.47;;
1957;SDS011;979;51.076;13.748;2022-08-21T10:11:33;7.20;;;7.10;;
1957;SDS011;979;51.076;13.748;2022-08-21T10:14:06;7.40;;;7.30;;
1957;SDS011;979;51.076;13.748;2022-08-21T10:16:45;7.57;;;7.47;;
1957;SDS011;979;51.076;13.748;2022-08-21T10:19:27;8.80;;;8.60;;
1957;SDS011;979;51.076;13.748;2022-08-21T10:22:05;9.23;;;9.03;;
1957;SDS011;979;51.076;13.748;2022-08-21T10:24:43;9.30;;;9.10;;
1957;SDS011;979;51.076;13.748;2022-08-21T10:27:22;10.00;;;9.80;;
1957;SDS011;979;51.076;13.748;2022-08-21T10:30:03;9.57;;;9.37;;
1957;SDS011;979;51.076;13.748;2022-08-21T10:32:37;10.70;;;10.50;;
1957;SDS011;979;51.076;13.748;2022-08-21T10:35:24;10.70;;;10.50;;
1957;SDS011;979;51.076;13.748;2022-08-21T10:38:03;10.20;;;10.00;;
1957;SDS011;979;51.076;13.748;2022-08-21T10:41:14;10.30;;;10.10;;
1957;SDS011;979;51.076;13.748;2022-08-21T10:43:50;11.03;;;10.83;;
1957;SDS011;979;51.076;13.748;2022-08-21T10:46:32;10.40;;;10.20;;
1957;SDS011;979;51.076;13.748;2022-08-21T10:49:14;10.53;;;10.33;;
1957;SDS011;979;51.076;13.748;2022-08-21T10:51:52;12.00;;;11.70;;
1957;SDS011;979;51.076;13.748;2022-08-21T10:54:29;11.63;;;11.43;;
1957;SDS011;979;51.076;13.748;2022-08-21T10:57:09;11.70;;;11.50;;
1957;SDS011;979;51.076;13.748;2022-08-21T10:59:59;11.27;;;11.07;;
1957;SDS011;979;51.076;13.748;2022-08-21T11:02:35;11.53;;;11.33;;
1957;SDS011;979;51.076;13.748;2022-08-21T11:05:10;11.10;;;10.90;;
1957;SDS011;979;51.076;13.748;2022-08-21T11:07:43;17.03;;;15.50;;
1957;SDS011;979;51.076;13.748;2022-08-21T11:10:16;15.43;;;14.73;;
1957;SDS011;979;51.076;13.748;2022-08-21T11:13:00;15.53;;;15.00;;
1957;SDS011;979;51.076;13.748;2022-08-21T11:15:37;16.07;;;15.00;;
1957;SDS011;979;51.076;13.748;2022-08-21T11:18:22;16.60;;;15.77;;
1957;SDS011;979;51.076;13.748;2022-08-21T11:21:01;15.37;;;14.70;;
1957;SDS011;979;51.076;13.748;2022-08-21T11:23:38;16.40;;;15.50;;
1957;SDS011;979;51.076;13.748;2022-08-21T11:26:13;16.33;;;15.20;;
1957;SDS011;979;51.076;13.748;2022-08-21T11:28:48;15.53;;;14.83;;
1957;SDS011;979;51.076;13.748;2022-08-21T11:31:27;12.27;;;12.00;;
1957;SDS011;979;51.076;13.748;2022-08-21T11:34:12;15.90;;;15.10;;
1957;SDS011;979;51.076;13.748;2022-08-21T11:36:51;16.37;;;15.77;;
1957;SDS011;979;51.076;13.748;2022-08-21T11:39:33;16.77;;;15.87;;
1957;SDS011;979;51.076;13.748;2022-08-21T11:42:09;17.10;;;16.50;;
1957;SDS011;979;51.076;13.748;2022-08-21T11:44:49;16.30;;;15.60;;
1957;SDS011;979;51.076;13.748;2022-08-21T11:47:25;17.60;;;16.90;;
1957;SDS011;979;51.076;13.748;2022-08-21T11:50:11;17.43;;;16.57;;
1957;SDS011;979;51.076;13.748;2022-08-21T11:53:03;17.00;;;16.20;;
1957;SDS011;979;51.076;13.748;2022-08-21T11:55:36;16.73;;;16.13;;
1957;SDS011;979;51.076;13.748;2022-08-21T11:58:10;16.67;;;16.03;;
1957;SDS011;979;51.076;13.748;2022-08-21T12:00:46;16.90;;;15.73;;
1957;SDS011;979;51.076;13.748;2022-08-21T12:03:22;16.93;;;16.10;;
1957;SDS011;979;51.076;13.748;2022-08-21T12:05:56;18.57;;;17.57;;
1957;SDS011;979;51.076;13.748;2022-08-21T12:08:27;15.97;;;15.40;;
1957;SDS011;979;51.076;13.748;2022-08-21T12:11:02;14.40;;;13.70;;
1957;SDS011;979;51.076;13.748;2022-08-21T12:13:36;16.07;;;15.57;;
1957;SDS011;979;51.076;13.748;2022-08-21T12:16:09;16.37;;;15.77;;
1957;SDS011;979;51.076;13.748;2022-08-21T12:18:39;17.23;;;16.20;;
1957;SDS011;979;51.076;13.748;2022-08-21T12:21:21;15.70;;;15.10;;
1957;SDS011;979;51.076;13.748;2022-08-21T12:23:59;17.10;;;16.50;;
1957;SDS011;979;51.076;13.748;2022-08-21T12:26:31;17.57;;;16.40;;
1957;SDS011;979;51.076;13.748;2022-08-21T12:29:03;15.83;;;15.23;;
1957;SDS011;979;51.076;13.748;2022-08-21T12:31:50;16.17;;;15.47;;
1957;SDS011;979;51.076;13.748;2022-08-21T12:34:31;15.63;;;15.03;;
1957;SDS011;979;51.076;13.748;2022-08-21T12:37:06;15.03;;;14.27;;
1957;SDS011;979;51.076;13.748;2022-08-21T12:39:51;15.43;;;14.83;;
1957;SDS011;979;51.076;13.748;2022-08-21T12:42:22;15.83;;;15.13;;
1957;SDS011;979;51.076;13.748;2022-08-21T12:44:55;16.63;;;15.73;;
1957;SDS011;979;51.076;13.748;2022-08-21T12:47:31;15.20;;;14.50;;
1957;SDS011;979;51.076;13.748;2022-08-21T12:50:03;16.10;;;15.50;;
1957;SDS011;979;51.076;13.748;2022-08-21T12:52:36;15.00;;;14.60;;
1957;SDS011;979;51.076;13.748;2022-08-21T12:55:12;14.67;;;14.27;;
1957;SDS011;979;51.076;13.748;2022-08-21T12:57:44;15.73;;;15.03;;
1957;SDS011;979;51.076;13.748;2022-08-21T13:00:13;14.50;;;13.90;;
1957;SDS011;979;51.076;13.748;2022-08-21T13:02:48;15.03;;;14.33;;
1957;SDS011;979;51.076;13.748;2022-08-21T13:05:23;13.65;;;13.10;;
1957;SDS011;979;51.076;13.748;2022-08-21T13:07:58;15.80;;;15.10;;
1957;SDS011;979;51.076;13.748;2022-08-21T13:10:34;15.50;;;15.00;;
1957;SDS011;979;51.076;13.748;2022-08-21T13:13:03;16.20;;;15.50;;
1957;SDS011;979;51.076;13.748;2022-08-21T13:15:41;15.37;;;14.87;;
1957;SDS011;979;51.076;13.748;2022-08-21T13:18:20;17.40;;;16.60;;
1957;SDS011;979;51.076;13.748;2022-08-21T13:20:50;16.17;;;15.60;;
1957;SDS011;979;51.076;13.748;2022-08-21T13:23:23;15.63;;;14.93;;
1957;SDS011;979;51.076;13.748;2022-08-21T13:25:53;15.53;;;14.93;;
1957;SDS011;979;51.076;13.748;2022-08-21T13:28:23;16.73;;;16.20;;
1957;SDS011;979;51.076;13.748;2022-08-21T13:30:59;15.97;;;15.30;;
1957;SDS011;979;51.076;13.748;2022-08-21T13:33:28;15.80;;;15.20;;
1957;SDS011;979;51.076;13.748;2022-08-21T13:36:04;15.70;;;15.00;;
1957;SDS011;979;51.076;13.748;2022-08-21T13:38:40;16.17;;;15.27;;
1957;SDS011;979;51.076;13.748;2022-08-21T13:41:10;14.40;;;13.60;;
1957;SDS011;979;51.076;13.748;2022-08-21T13:43:45;15.60;;;15.10;;
1957;SDS011;979;51.076;13.748;2022-08-21T13:46:24;16.37;;;15.60;;
1957;SDS011;979;51.076;13.748;2022-08-21T13:48:57;16.50;;;15.60;;
1957;SDS011;979;51.076;13.748;2022-08-21T13:51:41;15.23;;;14.70;;
1957;SDS011;979;51.076;13.748;2022-08-21T13:54:20;15.50;;;14.90;;
1957;SDS011;979;51.076;13.748;2022-08-21T13:56:58;16.23;;;15.53;;
1957;SDS011;979;51.076;13.748;2022-08-21T13:59:27;15.50;;;15.00;;
1957;SDS011;979;51.076;13.748;2022-08-21T14:01:57;16.17;;;15.33;;
1957;SDS011;979;51.076;13.748;2022-08-21T14:04:32;16.17;;;15.30;;
1957;SDS011;979;51.076;13.748;2022-08-21T14:07:13;15.77;;;15.17;;
1957;SDS011;979;51.076;13.748;2022-08-21T14:09:45;15.43;;;14.90;;
1957;SDS011;979;51.076;13.748;2022-08-21T14:12:19;15.73;;;15.03;;
1957;SDS011;979;51.076;13.748;2022-08-21T14:14:55;16.53;;;15.40;;
1957;SDS011;979;51.076;13.748;2022-08-21T14:17:26;16.37;;;15.70;;
1957;SDS011;979;51.076;13.748;2022-08-21T14:19:59;16.90;;;16.10;;
1957;SDS011;979;51.076;13.748;2022-08-21T14:22:32;16.40;;;15.80;;
1957;SDS011;979;51.076;13.748;2022-08-21T14:25:07;16.77;;;15.87;;
1957;SDS011;979;51.076;13.748;2022-08-21T14:27:39;19.23;;;17.60;;
1957;SDS011;979;51.076;13.748;2022-08-21T14:30:12;15.73;;;15.00;;
1957;SDS011;979;51.076;13.748;2022-08-21T14:32:46;16.10;;;15.40;;
1957;SDS011;979;51.076;13.748;2022-08-21T14:35:14;15.27;;;14.60;;
1957;SDS011;979;51.076;13.748;2022-08-21T14:37:49;16.10;;;15.03;;
1957;SDS011;979;51.076;13.748;2022-08-21T14:40:20;16.17;;;15.37;;
1957;SDS011;979;51.076;13.748;2022-08-21T14:42:50;15.83;;;15.13;;
1957;SDS011;979;51.076;13.748;2022-08-21T14:45:20;16.90;;;16.23;;
1957;SDS011;979;51.076;13.748;2022-08-21T14:47:55;15.80;;;15.17;;
1957;SDS011;979;51.076;13.748;2022-08-21T14:50:25;15.57;;;14.97;;
1957;SDS011;979;51.076;13.748;2022-08-21T14:52:53;16.03;;;15.33;;
1957;SDS011;979;51.076;13.748;2022-08-21T14:55:23;17.00;;;16.40;;
1957;SDS011;979;51.076;13.748;2022-08-21T14:57:51;15.37;;;14.77;;
1957;SDS011;979;51.076;13.748;2022-08-21T15:00:23;15.87;;;15.17;;
1957;SDS011;979;51.076;13.748;2022-08-21T15:03:01;14.53;;;13.93;;
1957;SDS011;979;51.076;13.748;2022-08-21T15:05:30;14.53;;;13.93;;
1957;SDS011;979;51.076;13.748;2022-08-21T15:07:59;15.63;;;14.93;;
1957;SDS011;979;51.076;13.748;2022-08-21T15:10:30;15.67;;;15.07;;
1957;SDS011;979;51.076;13.748;2022-08-21T15:13:00;17.73;;;16.53;;
1957;SDS011;979;51.076;13.748;2022-08-21T15:15:32;15.10;;;14.57;;
1957;SDS011;979;51.076;13.748;2022-08-21T15:18:06;16.03;;;15.33;;
1957;SDS011;979;51.076;13.748;2022-08-21T15:20:36;14.77;;;14.20;;
1957;SDS011;979;51.076;13.748;2022-08-21T15:23:05;15.17;;;14.57;;
1957;SDS011;979;51.076;13.748;2022-08-21T15:25:42;15.00;;;14.60;;
1957;SDS011;979;51.076;13.748;2022-08-21T15:28:11;14.80;;;14.23;;
1957;SDS011;979;51.076;13.748;2022-08-21T15:30:41;14.80;;;14.30;;
1957;SDS011;979;51.076;13.748;2022-08-21T15:33:11;15.00;;;14.50;;
1957;SDS011;979;51.076;13.748;2022-08-21T15:35:41;16.37;;;15.40;;
1957;SDS011;979;51.076;13.748;2022-08-21T15:38:12;15.80;;;15.30;;
1957;SDS011;979;51.076;13.748;2022-08-21T15:40:45;14.97;;;14.27;;